Time;durP1;ratioP1;P1;durP2;ratioP2;P2;SDS_P1;SDS_P2;PMS_P1;PMS_P2;Temp;Humidity;BMP_temperature;BMP_pressure;BME280_temperature;BME280_humidity;BME280_pressure;Samples;Min_cycle;Max_cycle;Signal;HPM_P1;HPM_P2
2022/07/09 00:00:42;;;;;;;10.32;3.20;;;16.60;99.90;;;;;;5039972;28;20025;-83
2022/07/09 00:03:08;;;;;;;11.80;2.60;;;16.60;99.90;;;;;;5040280;28;20040;-83
2022/07/09 00:05:34;;;;;;;5.10;2.80;;;16.60;99.90;;;;;;5040281;28;20068;-83
2022/07/09 00:08:00;;;;;;;8.98;2.95;;;16.50;99.90;;;;;;5039534;28;20033;-82
2022/07/09 00:10:25;;;;;;;6.57;2.70;;;16.50;99.90;;;;;;5041346;28;20057;-82
2022/07/09 00:12:51;;;;;;;9.13;3.00;;;16.50;99.90;;;;;;5041215;28;20064;-82
2022/07/09 00:15:17;;;;;;;6.10;2.97;;;16.50;99.90;;;;;;5040757;28;20036;-82
2022/07/09 00:17:43;;;;;;;6.75;3.22;;;16.50;99.90;;;;;;5051235;28;20022;-80
2022/07/09 00:20:09;;;;;;;6.53;2.90;;;16.50;99.90;;;;;;5060803;28;20650;-83
2022/07/09 00:22:35;;;;;;;7.45;2.97;;;16.50;99.90;;;;;;5060314;28;20104;-80
2022/07/09 00:25:02;;;;;;;6.60;2.90;;;16.40;99.90;;;;;;5058593;28;20038;-82
2022/07/09 00:27:27;;;;;;;5.93;2.65;;;16.40;99.90;;;;;;5058768;28;20037;-81
2022/07/09 00:29:53;;;;;;;6.93;2.75;;;16.40;99.90;;;;;;5060022;28;20044;-80
2022/07/09 00:32:19;;;;;;;7.20;2.97;;;16.40;99.90;;;;;;5058024;28;20099;-79
2022/07/09 00:34:46;;;;;;;9.18;3.05;;;16.40;99.90;;;;;;5057763;28;20128;-81
2022/07/09 00:37:12;;;;;;;5.78;2.55;;;16.40;99.90;;;;;;5054905;28;20029;-80
2022/07/09 00:39:38;;;;;;;6.60;2.70;;;16.40;99.90;;;;;;5038270;28;20093;-82
2022/07/09 00:42:09;;;;;;;8.23;2.88;;;16.50;99.90;;;;;;5053878;28;20081;-80
2022/07/09 00:44:36;;;;;;;10.48;3.15;;;16.50;99.90;;;;;;5050251;28;20047;-82
2022/07/09 00:47:07;;;;;;;6.78;2.88;;;16.50;99.90;;;;;;5048297;28;20021;-82
2022/07/09 00:49:38;;;;;;;5.30;2.80;;;16.50;99.90;;;;;;5048050;28;20470;-82
2022/07/09 00:52:06;;;;;;;7.80;3.03;;;16.50;99.90;;;;;;5049000;28;20042;-80
2022/07/09 00:54:32;;;;;;;6.35;2.67;;;16.50;99.90;;;;;;5040140;28;20080;-83
2022/07/09 00:56:58;;;;;;;9.68;3.10;;;16.50;99.90;;;;;;5040967;28;20099;-82
2022/07/09 00:59:24;;;;;;;8.88;2.85;;;16.50;99.90;;;;;;5042734;28;20497;-82
2022/07/09 01:01:50;;;;;;;7.50;2.97;;;16.50;99.90;;;;;;5039898;28;20045;-82
2022/07/09 01:04:17;;;;;;;7.53;2.30;;;16.50;99.90;;;;;;5042784;28;20041;-82
2022/07/09 01:06:43;;;;;;;6.97;2.53;;;16.40;99.90;;;;;;5039594;28;20026;-81
2022/07/09 01:09:09;;;;;;;5.60;2.65;;;16.50;99.90;;;;;;5039272;28;20503;-81
2022/07/09 01:11:36;;;;;;;8.90;2.90;;;16.40;99.90;;;;;;5039452;28;20112;-82
2022/07/09 01:14:02;;;;;;;4.40;2.08;;;16.40;99.90;;;;;;5038182;28;20025;-82
2022/07/09 01:16:35;;;;;;;11.02;2.90;;;16.40;99.90;;;;;;5040074;28;20064;-81
2022/07/09 01:19:01;;;;;;;7.95;2.50;;;16.40;99.90;;;;;;5038461;28;20029;-82
2022/07/09 01:21:27;;;;;;;5.15;2.63;;;16.40;99.90;;;;;;5039996;28;20030;-81
2022/07/09 01:23:53;;;;;;;4.35;2.30;;;16.40;99.90;;;;;;5042118;28;20092;-81
2022/07/09 01:26:22;;;;;;;6.47;2.95;;;16.40;99.90;;;;;;5041394;28;20359;-81
2022/07/09 01:28:48;;;;;;;8.00;3.20;;;16.30;99.90;;;;;;5041304;28;20025;-80
2022/07/09 01:31:14;;;;;;;5.65;2.38;;;16.30;99.90;;;;;;5042120;28;20026;-81
2022/07/09 01:33:40;;;;;;;8.32;2.72;;;16.30;99.90;;;;;;5041670;28;20511;-80
2022/07/09 01:36:07;;;;;;;9.20;2.65;;;16.30;99.90;;;;;;5038033;28;20025;-82
2022/07/09 01:38:33;;;;;;;6.55;2.58;;;16.30;99.90;;;;;;5038174;28;20040;-83
2022/07/09 01:40:59;;;;;;;4.32;2.70;;;16.30;99.90;;;;;;5039533;28;20026;-81
2022/07/09 01:43:25;;;;;;;6.72;2.60;;;16.30;99.90;;;;;;5037930;28;20029;-82
2022/07/09 01:45:50;;;;;;;6.18;2.50;;;16.30;99.90;;;;;;5041147;28;20013;-81
2022/07/09 01:48:17;;;;;;;8.32;2.70;;;16.20;99.90;;;;;;5104872;22;20079;-85
2022/07/09 01:50:43;;;;;;;5.50;2.60;;;16.20;99.90;;;;;;5055548;28;20029;-85
2022/07/09 01:53:09;;;;;;;6.47;2.58;;;16.20;99.90;;;;;;5071303;28;20090;-85
2022/07/09 01:55:35;;;;;;;10.27;2.38;;;16.10;99.90;;;;;;5073008;28;20021;-83
2022/07/09 01:58:00;;;;;;;8.45;2.55;;;16.20;99.90;;;;;;5061216;28;20452;-86
2022/07/09 02:00:30;;;;;;;6.03;2.47;;;16.20;99.90;;;;;;5046128;28;20029;-87
2022/07/09 02:02:56;;;;;;;9.43;2.70;;;16.20;99.90;;;;;;5050546;28;20017;-87
2022/07/09 02:05:23;;;;;;;6.00;2.60;;;16.30;99.90;;;;;;5050457;28;20044;-84
2022/07/09 02:07:49;;;;;;;3.38;2.28;;;16.20;99.90;;;;;;5051636;28;20017;-85
2022/07/09 02:10:15;;;;;;;6.75;2.63;;;16.20;99.90;;;;;;5052761;28;20085;-86
2022/07/09 02:12:41;;;;;;;6.00;2.42;;;16.30;99.90;;;;;;5053298;28;20025;-86
2022/07/09 02:15:08;;;;;;;3.60;1.73;;;16.30;99.90;;;;;;5049346;28;20061;-85
2022/07/09 02:17:35;;;;;;;4.88;2.30;;;16.30;99.90;;;;;;5049009;28;20068;-85
2022/07/09 02:20:01;;;;;;;7.80;2.58;;;16.20;99.90;;;;;;5049708;28;20036;-88
2022/07/09 02:22:27;;;;;;;6.72;2.13;;;16.20;99.90;;;;;;5053799;28;20030;-83
2022/07/09 02:24:53;;;;;;;5.53;2.22;;;16.20;99.90;;;;;;5058706;28;20060;-81
2022/07/09 02:27:19;;;;;;;8.38;2.60;;;16.20;99.90;;;;;;5058856;28;20013;-82
2022/07/09 02:29:45;;;;;;;5.32;2.10;;;16.20;99.90;;;;;;5057992;28;20044;-84
2022/07/09 02:32:11;;;;;;;6.53;2.25;;;16.20;99.90;;;;;;5057946;28;20037;-81
2022/07/09 02:34:37;;;;;;;4.60;2.53;;;16.20;99.90;;;;;;5058701;28;20010;-82
2022/07/09 02:37:04;;;;;;;5.15;2.40;;;16.10;99.90;;;;;;5058450;28;20043;-82
2022/07/09 02:39:30;;;;;;;10.20;2.53;;;16.10;99.90;;;;;;5058399;28;20017;-82
2022/07/09 02:41:56;;;;;;;5.18;2.30;;;16.20;99.90;;;;;;5057479;28;20035;-85
2022/07/09 02:44:22;;;;;;;3.90;2.15;;;16.20;99.90;;;;;;5057855;28;20009;-82
2022/07/09 02:46:48;;;;;;;5.10;2.08;;;16.30;99.90;;;;;;5056856;28;20041;-85
2022/07/09 02:49:14;;;;;;;7.63;2.22;;;16.40;99.90;;;;;;5039252;28;20056;-85
2022/07/09 02:51:40;;;;;;;5.00;2.10;;;16.40;99.90;;;;;;5053453;28;20040;-85
2022/07/09 02:54:06;;;;;;;4.13;1.58;;;16.40;99.90;;;;;;5056773;28;20033;-84
2022/07/09 02:56:32;;;;;;;6.78;2.17;;;16.50;99.90;;;;;;5057263;28;20029;-84
2022/07/09 02:58:58;;;;;;;4.55;2.30;;;16.50;99.90;;;;;;5046928;28;20033;-88
2022/07/09 03:01:23;;;;;;;4.18;2.50;;;16.50;99.90;;;;;;5045646;28;20092;-86
2022/07/09 03:03:50;;;;;;;5.70;2.30;;;16.60;99.90;;;;;;5045053;28;20025;-84
2022/07/09 03:06:16;;;;;;;6.13;1.90;;;16.60;99.90;;;;;;5043947;28;20374;-86
2022/07/09 03:08:42;;;;;;;8.98;2.28;;;16.60;99.90;;;;;;5042593;28;20033;-85
2022/07/09 03:11:08;;;;;;;4.85;1.90;;;16.60;99.90;;;;;;5048444;28;20051;-84
2022/07/09 03:13:35;;;;;;;8.02;2.30;;;16.70;99.90;;;;;;5051420;28;20021;-85
2022/07/09 03:16:06;;;;;;;4.55;1.73;;;16.60;99.90;;;;;;5047715;28;20098;-84
2022/07/09 03:18:31;;;;;;;5.07;1.98;;;16.70;99.90;;;;;;5050771;28;20055;-86
2022/07/09 03:20:57;;;;;;;4.53;2.05;;;16.70;99.90;;;;;;5049722;28;20045;-83
2022/07/09 03:23:23;;;;;;;6.15;1.80;;;16.80;99.90;;;;;;5048894;28;20033;-86
2022/07/09 03:25:49;;;;;;;11.82;2.33;;;16.80;99.90;;;;;;5048654;28;20018;-86
2022/07/09 03:28:15;;;;;;;4.40;2.03;;;16.80;99.90;;;;;;5045650;28;20036;-85
2022/07/09 03:30:44;;;;;;;5.15;1.92;;;16.80;99.90;;;;;;5028993;28;20037;-87
2022/07/09 03:33:10;;;;;;;7.85;1.88;;;16.90;99.90;;;;;;5050460;28;20016;-84
2022/07/09 03:35:35;;;;;;;4.38;2.28;;;16.90;99.90;;;;;;5058191;28;20014;-83
2022/07/09 03:38:01;;;;;;;5.63;2.05;;;16.90;99.90;;;;;;5057571;28;20121;-84
2022/07/09 03:40:27;;;;;;;5.13;2.13;;;17.00;99.90;;;;;;5057140;28;20040;-83
2022/07/09 03:42:53;;;;;;;5.50;1.80;;;17.00;99.90;;;;;;5057326;28;20026;-83
2022/07/09 03:45:19;;;;;;;8.77;2.67;;;17.00;99.90;;;;;;5057042;28;20017;-83
2022/07/09 03:47:45;;;;;;;8.15;2.55;;;17.00;99.90;;;;;;5057135;28;20014;-81
2022/07/09 03:50:12;;;;;;;3.03;1.85;;;17.10;99.90;;;;;;5046247;28;20037;-86
2022/07/09 03:52:38;;;;;;;3.38;1.70;;;17.10;99.90;;;;;;5046186;28;20064;-84
2022/07/09 03:55:04;;;;;;;3.15;1.58;;;17.10;99.90;;;;;;5029924;28;20021;-85
2022/07/09 03:57:31;;;;;;;9.10;2.15;;;17.20;99.90;;;;;;5049461;28;20064;-84
2022/07/09 03:59:57;;;;;;;6.80;2.08;;;17.20;99.90;;;;;;5049790;28;20017;-84
2022/07/09 04:02:22;;;;;;;6.22;1.98;;;17.20;99.90;;;;;;5051950;28;20013;-85
2022/07/09 04:04:48;;;;;;;5.18;2.30;;;17.30;99.90;;;;;;5050593;28;20021;-88
2022/07/09 04:07:14;;;;;;;4.25;2.10;;;17.30;99.90;;;;;;5046224;28;20018;-88
2022/07/09 04:09:40;;;;;;;3.08;1.60;;;17.30;99.90;;;;;;5028819;28;20116;-87
2022/07/09 04:12:07;;;;;;;5.00;1.92;;;17.40;99.90;;;;;;5030733;28;20444;-87
2022/07/09 04:14:34;;;;;;;5.53;1.70;;;17.40;99.90;;;;;;5049353;28;20052;-85
2022/07/09 04:17:25;;;;;;;7.35;1.88;;;17.40;99.90;;;;;;5050804;28;20022;-87
2022/07/09 04:20:21;;;;;;;6.75;1.80;;;17.50;99.90;;;;;;5046577;28;20041;-86
2022/07/09 04:22:46;;;;;;;5.53;1.80;;;17.60;99.90;;;;;;5029927;28;20125;-84
2022/07/09 04:25:12;;;;;;;8.07;2.03;;;17.60;99.90;;;;;;5036130;28;20010;-84
2022/07/09 04:27:39;;;;;;;10.18;1.90;;;17.70;99.90;;;;;;5020719;28;20061;-86
2022/07/09 04:30:33;;;;;;;16.48;5.53;;;17.80;99.90;;;;;;5035662;28;20061;-87
2022/07/09 04:33:02;;;;;;;5.30;1.70;;;17.90;99.90;;;;;;5018752;28;20293;-87
2022/07/09 04:35:30;;;;;;;5.78;2.05;;;18.10;99.90;;;;;;5005606;28;20129;-89
2022/07/09 04:38:08;;;;;;;6.78;2.13;;;18.20;99.90;;;;;;5025469;28;20076;-86
2022/07/09 04:40:56;;;;;;;8.90;2.92;;;18.30;99.90;;;;;;5026471;28;20033;-84
2022/07/09 04:43:44;;;;;;;8.35;2.30;;;18.30;99.90;;;;;;5025732;28;20034;-86
2022/07/09 04:46:10;;;;;;;8.90;1.90;;;18.20;99.90;;;;;;5036060;28;20022;-84
2022/07/09 04:48:36;;;;;;;4.20;1.67;;;18.10;99.90;;;;;;5053538;28;20041;-87
2022/07/09 04:51:02;;;;;;;8.38;1.95;;;18.10;99.90;;;;;;5054597;28;20022;-84
2022/07/09 04:53:27;;;;;;;5.25;1.90;;;18.30;99.90;;;;;;5057098;28;20017;-85
2022/07/09 04:55:53;;;;;;;5.47;2.08;;;18.40;99.90;;;;;;5045893;28;20053;-85
2022/07/09 04:58:19;;;;;;;6.57;2.08;;;18.50;99.90;;;;;;5038695;28;20090;-85
2022/07/09 05:00:45;;;;;;;5.13;2.00;;;18.50;99.90;;;;;;5023042;28;20037;-85
2022/07/09 05:03:11;;;;;;;4.88;1.65;;;18.60;99.90;;;;;;5041713;28;20037;-85
2022/07/09 05:05:41;;;;;;;6.05;2.03;;;18.50;99.90;;;;;;5041298;28;20010;-85
2022/07/09 05:08:06;;;;;;;8.00;2.08;;;18.50;99.90;;;;;;5046495;28;20021;-86
2022/07/09 05:10:33;;;;;;;7.70;1.90;;;18.60;99.90;;;;;;5036877;28;20046;-85
2022/07/09 05:12:58;;;;;;;4.90;1.88;;;18.80;99.90;;;;;;5050106;28;20079;-85
2022/07/09 05:15:24;;;;;;;6.97;1.90;;;18.80;99.90;;;;;;5032775;28;20059;-86
2022/07/09 05:17:50;;;;;;;5.55;1.63;;;18.90;99.90;;;;;;5047266;28;20021;-87
2022/07/09 05:20:16;;;;;;;5.88;2.05;;;18.80;99.90;;;;;;5049129;28;20068;-88
2022/07/09 05:22:42;;;;;;;7.28;2.33;;;18.80;99.90;;;;;;5048575;28;20083;-90
2022/07/09 05:25:09;;;;;;;4.50;2.08;;;18.70;99.90;;;;;;5048936;28;20069;-90
2022/07/09 05:27:45;;;;;;;5.68;2.05;;;18.70;99.90;;;;;;5035861;28;20026;-88
2022/07/09 05:30:15;;;;;;;4.35;1.55;;;18.80;99.90;;;;;;5048686;28;20037;-90
2022/07/09 05:32:43;;;;;;;8.90;2.40;;;18.80;99.90;;;;;;5050061;28;20163;-89
2022/07/09 05:35:09;;;;;;;4.63;1.80;;;18.80;99.90;;;;;;5049840;28;20033;-89
2022/07/09 05:37:42;;;;;;;5.82;2.17;;;18.90;99.90;;;;;;5051596;28;20053;-89
2022/07/09 05:40:08;;;;;;;10.38;1.95;;;19.00;99.90;;;;;;5056494;28;20059;-88
2022/07/09 05:42:34;;;;;;;3.45;1.63;;;19.20;99.90;;;;;;5041941;28;20034;-88
2022/07/09 05:45:00;;;;;;;7.20;2.55;;;19.40;99.90;;;;;;5057566;28;20044;-89
2022/07/09 05:47:26;;;;;;;5.00;1.95;;;19.40;99.90;;;;;;5057183;28;20032;-90
2022/07/09 05:49:52;;;;;;;5.03;1.70;;;19.60;99.90;;;;;;5058588;28;20044;-88
2022/07/09 05:52:18;;;;;;;4.18;1.65;;;19.60;99.90;;;;;;5056250;28;20029;-89
2022/07/09 05:54:44;;;;;;;7.63;1.80;;;19.60;99.90;;;;;;5059656;28;20085;-87
2022/07/09 05:57:15;;;;;;;14.48;2.10;;;19.60;99.90;;;;;;5042684;28;20028;-88
2022/07/09 05:59:47;;;;;;;3.88;1.80;;;19.60;99.90;;;;;;5059222;28;20048;-87
2022/07/09 06:02:13;;;;;;;19.05;4.47;;;19.70;99.90;;;;;;5041890;28;20047;-89
2022/07/09 06:04:39;;;;;;;6.53;2.30;;;19.80;99.90;;;;;;5038912;28;20024;-88
2022/07/09 06:07:09;;;;;;;6.38;1.70;;;19.80;99.90;;;;;;5057923;28;20089;-88
2022/07/09 06:09:35;;;;;;;5.70;1.80;;;19.90;99.90;;;;;;5057159;28;20033;-87
2022/07/09 06:12:01;;;;;;;4.85;1.98;;;20.00;99.90;;;;;;5056504;28;20029;-89
2022/07/09 06:14:30;;;;;;;4.10;1.80;;;19.80;99.90;;;;;;5053958;28;20029;-89
2022/07/09 06:16:56;;;;;;;5.32;1.63;;;19.80;99.90;;;;;;5035815;28;20029;-89
2022/07/09 06:19:23;;;;;;;4.35;1.60;;;19.90;99.90;;;;;;5035422;28;20025;-89
2022/07/09 06:21:49;;;;;;;5.03;1.85;;;19.90;99.90;;;;;;5041963;28;20041;-88
2022/07/09 06:24:14;;;;;;;5.05;1.98;;;19.90;99.90;;;;;;5058892;28;20040;-85
2022/07/09 06:26:40;;;;;;;3.60;1.50;;;20.00;99.90;;;;;;5059366;28;20017;-87
2022/07/09 06:29:06;;;;;;;8.88;2.10;;;19.90;99.90;;;;;;5058598;28;20029;-87
2022/07/09 06:31:32;;;;;;;2.55;1.60;;;20.00;99.90;;;;;;5059315;28;20102;-89
2022/07/09 06:33:58;;;;;;;8.55;2.67;;;20.00;99.90;;;;;;5058588;28;20041;-88
2022/07/09 06:36:24;;;;;;;7.32;2.20;;;20.00;99.90;;;;;;5058047;28;20085;-87
2022/07/09 06:41:41;;;;;;;5.07;1.67;;;20.20;99.90;;;;;;5057889;28;20045;-88
2022/07/09 06:44:11;;;;;;;4.93;1.50;;;20.30;99.90;;;;;;5041041;28;20143;-88
2022/07/09 06:46:38;;;;;;;9.98;2.03;;;20.30;99.90;;;;;;5054398;28;20095;-88
2022/07/09 06:49:11;;;;;;;7.07;1.88;;;20.30;99.90;;;;;;5035931;28;20028;-88
2022/07/09 06:51:40;;;;;;;7.68;1.83;;;20.30;99.90;;;;;;5035118;28;20044;-89
2022/07/09 06:54:06;;;;;;;3.15;1.60;;;20.40;99.90;;;;;;5051263;28;20136;-89
2022/07/09 06:56:31;;;;;;;4.07;1.60;;;20.50;99.90;;;;;;5036948;28;20066;-88
2022/07/09 06:58:57;;;;;;;5.00;1.90;;;20.40;99.90;;;;;;5053160;28;20029;-89
2022/07/09 07:01:23;;;;;;;2.65;1.52;;;20.40;99.90;;;;;;5051838;28;20044;-89
2022/07/09 07:03:52;;;;;;;6.68;1.90;;;20.60;99.90;;;;;;5055629;28;20017;-88
2022/07/09 07:06:18;;;;;;;3.67;1.70;;;20.90;99.90;;;;;;5039456;28;20025;-89
2022/07/09 07:08:47;;;;;;;2.83;1.65;;;21.10;99.90;;;;;;5040234;28;20017;-87
2022/07/09 07:11:16;;;;;;;5.53;1.63;;;21.30;99.90;;;;;;5040621;28;20065;-88
2022/07/09 07:13:42;;;;;;;4.70;1.90;;;21.40;99.90;;;;;;5056167;28;20026;-88
2022/07/09 07:16:08;;;;;;;8.90;1.45;;;21.50;99.90;;;;;;5051905;28;20029;-89
2022/07/09 07:18:37;;;;;;;5.32;1.25;;;21.60;99.90;;;;;;5051462;28;20223;-88
2022/07/09 07:21:08;;;;;;;7.95;1.90;;;21.70;99.60;;;;;;5053480;28;20064;-89
2022/07/09 07:23:34;;;;;;;3.90;1.85;;;21.70;99.30;;;;;;5052169;28;20044;-89
2022/07/09 07:26:04;;;;;;;4.40;1.58;;;21.90;98.90;;;;;;5036234;28;20043;-88
2022/07/09 07:28:31;;;;;;;4.70;1.90;;;22.10;98.60;;;;;;5052130;28;20026;-89
2022/07/09 07:31:03;;;;;;;3.58;1.65;;;22.40;97.90;;;;;;5035877;28;20022;-88
2022/07/09 07:33:32;;;;;;;;;;;22.60;97.60;;;;;;5035775;28;20044;-88
2022/07/09 07:35:57;;;;;;;6.32;1.50;;;22.70;97.30;;;;;;5033181;28;19905;-90
2022/07/09 07:38:27;;;;;;;4.60;1.60;;;22.50;96.80;;;;;;5049107;28;20029;-89
2022/07/09 07:40:56;;;;;;;4.97;1.48;;;22.30;96.90;;;;;;5048199;28;20034;-88
2022/07/09 07:43:25;;;;;;;7.90;1.73;;;22.10;96.90;;;;;;5049615;28;20028;-89
2022/07/09 07:45:51;;;;;;;4.07;1.20;;;22.00;97.00;;;;;;5050075;28;20068;-89
2022/07/09 07:48:17;;;;;;;3.63;1.42;;;22.00;96.70;;;;;;5065355;22;20109;-82
2022/07/09 07:50:42;;;;;;;3.35;1.20;;;22.00;96.80;;;;;;5060949;28;20507;-83
2022/07/09 07:53:08;;;;;;;4.97;1.27;;;22.10;96.40;;;;;;5061531;28;20029;-82
2022/07/09 07:55:34;;;;;;;2.97;1.13;;;22.20;96.40;;;;;;5059922;28;20397;-83
2022/07/09 07:58:00;;;;;;;4.68;1.35;;;22.50;96.00;;;;;;5057549;28;20059;-81
2022/07/09 08:00:26;;;;;;;4.65;1.10;;;22.70;94.90;;;;;;5056714;28;20033;-82
2022/07/09 08:02:52;;;;;;;3.55;1.00;;;22.80;94.80;;;;;;5055486;28;20025;-81
2022/07/09 08:05:18;;;;;;;3.65;1.55;;;22.80;94.30;;;;;;5057795;28;20029;-83
2022/07/09 08:07:44;;;;;;;3.45;1.40;;;22.90;94.40;;;;;;5058115;28;20028;-82
2022/07/09 08:10:10;;;;;;;5.90;1.65;;;23.10;94.40;;;;;;5069476;28;20033;-82
2022/07/09 08:12:35;;;;;;;4.43;1.35;;;23.10;94.10;;;;;;5069373;28;20396;-82
2022/07/09 08:15:02;;;;;;;4.70;1.63;;;23.00;94.10;;;;;;5071237;28;20029;-83
2022/07/09 08:17:27;;;;;;;3.67;1.33;;;23.00;94.00;;;;;;5070501;28;20025;-81
2022/07/09 08:19:53;;;;;;;3.75;1.80;;;23.00;94.10;;;;;;5071076;28;20021;-82
2022/07/09 08:22:19;;;;;;;3.40;1.35;;;22.80;94.90;;;;;;5071851;28;20023;-82
2022/07/09 08:24:45;;;;;;;7.18;1.60;;;22.50;94.20;;;;;;5064893;28;20028;-83
2022/07/09 08:27:10;;;;;;;3.70;1.52;;;22.20;94.20;;;;;;5061520;28;20250;-82
2022/07/09 08:29:37;;;;;;;5.38;1.60;;;22.10;94.00;;;;;;5063683;28;20025;-81
2022/07/09 08:32:04;;;;;;;4.25;1.40;;;22.10;94.30;;;;;;5063532;28;20025;-84
2022/07/09 08:34:30;;;;;;;3.40;1.63;;;22.20;94.60;;;;;;5065528;28;20498;-83
2022/07/09 08:36:56;;;;;;;4.13;1.40;;;22.20;94.40;;;;;;5062060;28;20024;-80
2022/07/09 08:39:22;;;;;;;3.90;1.33;;;22.50;94.20;;;;;;5064716;28;20028;-81
2022/07/09 08:41:47;;;;;;;3.05;1.25;;;22.80;93.80;;;;;;5077417;28;20029;-81
2022/07/09 08:44:14;;;;;;;6.53;2.35;;;22.60;93.80;;;;;;5070286;28;20403;-81
2022/07/09 08:46:40;;;;;;;5.18;1.33;;;22.60;93.30;;;;;;5070356;28;20052;-80
2022/07/09 08:49:07;;;;;;;3.92;1.13;;;22.50;93.00;;;;;;5078970;28;20029;-81
2022/07/09 08:51:36;;;;;;;4.90;1.42;;;22.30;93.00;;;;;;5079421;28;20952;-81
2022/07/09 08:54:02;;;;;;;4.03;1.30;;;22.50;93.00;;;;;;5078249;28;20044;-83
2022/07/09 08:56:27;;;;;;;4.43;1.50;;;22.60;93.10;;;;;;5075210;28;20094;-81
2022/07/09 08:58:53;;;;;;;3.13;1.23;;;22.80;92.80;;;;;;5075291;28;20024;-81
2022/07/09 09:01:19;;;;;;;4.28;1.23;;;22.90;92.80;;;;;;5061846;28;20044;-79
2022/07/09 09:03:46;;;;;;;4.68;1.20;;;22.90;92.20;;;;;;5078998;28;20033;-81
2022/07/09 09:06:13;;;;;;;3.75;1.10;;;22.90;91.90;;;;;;5078805;28;20021;-79
2022/07/09 09:08:44;;;;;;;3.17;1.08;;;22.70;91.50;;;;;;5079207;28;20077;-80
2022/07/09 09:11:19;;;;;;;4.95;1.15;;;22.80;91.70;;;;;;5078965;28;20040;-82
2022/07/09 09:13:47;;;;;;;2.67;1.50;;;23.00;91.60;;;;;;5078442;28;20032;-81
2022/07/09 09:16:15;;;;;;;2.17;1.08;;;23.40;91.70;;;;;;5073112;28;20025;-83
2022/07/09 09:18:41;;;;;;;3.92;1.63;;;23.70;91.10;;;;;;5061169;28;20033;-80
2022/07/09 09:21:08;;;;;;;2.60;1.60;;;23.90;91.20;;;;;;5059894;28;20096;-82
2022/07/09 09:23:45;;;;;;;5.35;2.00;;;23.90;91.50;;;;;;5060750;28;20029;-82
2022/07/09 09:26:17;;;;;;;4.03;2.00;;;23.80;91.10;;;;;;5060850;28;20048;-82
2022/07/09 09:28:54;;;;;;;3.83;1.98;;;23.30;91.30;;;;;;5059802;28;20029;-83
2022/07/09 09:31:34;;;;;;;4.20;1.90;;;23.20;91.40;;;;;;5062417;28;20025;-82
2022/07/09 09:34:06;;;;;;;2.60;1.95;;;23.40;91.20;;;;;;5067567;28;20032;-84
2022/07/09 09:36:37;;;;;;;5.50;2.67;;;23.70;90.90;;;;;;5062133;28;20028;-82
2022/07/09 09:39:12;;;;;;;7.03;2.15;;;23.60;90.30;;;;;;5059681;28;20020;-81
2022/07/09 09:41:39;;;;;;;;;;;23.30;90.60;;;;;;5061009;28;20036;-83
2022/07/09 09:44:09;;;;;;;3.50;2.35;;;23.40;90.80;;;;;;5061354;28;20294;-83
2022/07/09 09:46:40;;;;;;;5.47;2.47;;;23.40;90.80;;;;;;5065281;28;20033;-81
2022/07/09 09:49:10;;;;;;;4.68;2.35;;;23.50;90.90;;;;;;5060051;28;20102;-81
2022/07/09 09:51:41;;;;;;;5.53;2.80;;;24.00;90.60;;;;;;5059562;28;20554;-81
2022/07/09 09:54:09;;;;;;;7.63;2.50;;;24.30;88.20;;;;;;5060359;28;20059;-80
2022/07/09 09:56:35;;;;;;;4.20;2.20;;;24.50;88.50;;;;;;5059181;28;20064;-84
2022/07/09 09:59:02;;;;;;;4.13;2.20;;;24.50;87.40;;;;;;5061893;28;20128;-82
2022/07/09 10:01:29;;;;;;;3.47;2.10;;;24.70;87.30;;;;;;5060754;28;20029;-82
2022/07/09 10:03:56;;;;;;;5.10;2.00;;;24.90;87.00;;;;;;5060311;28;20032;-83
2022/07/09 10:06:22;;;;;;;3.67;2.03;;;25.00;86.60;;;;;;5059668;28;20036;-82
2022/07/09 10:08:48;;;;;;;3.45;2.33;;;25.50;86.30;;;;;;5060400;28;20029;-82
2022/07/09 10:11:13;;;;;;;3.63;1.92;;;26.10;84.20;;;;;;5064996;28;20096;-82
2022/07/09 10:13:55;;;;;;;6.63;2.03;;;26.50;83.10;;;;;;5064463;28;20064;-81
2022/07/09 10:16:38;;;;;;;5.18;2.25;;;26.80;82.40;;;;;;5067424;28;20037;-82
2022/07/09 10:19:05;;;;;;;4.25;2.20;;;26.70;82.00;;;;;;5067820;28;20139;-82
2022/07/09 10:21:40;;;;;;;5.30;2.30;;;26.40;82.20;;;;;;5071418;28;20024;-81
2022/07/09 10:24:08;;;;;;;3.38;1.75;;;26.10;82.00;;;;;;5071018;28;20316;-81
2022/07/09 10:26:44;;;;;;;4.55;1.52;;;26.00;81.20;;;;;;5065360;28;20063;-82
2022/07/09 10:29:27;;;;;;;4.35;1.83;;;25.70;81.40;;;;;;5061814;28;20025;-82
2022/07/09 10:31:54;;;;;;;2.95;1.55;;;25.90;81.50;;;;;;5062411;28;20036;-82
2022/07/09 10:34:44;;;;;;;2.15;1.35;;;26.30;80.20;;;;;;5061618;28;20511;-84
2022/07/09 10:37:10;;;;;;;4.45;1.70;;;27.70;78.50;;;;;;5069628;28;20044;-83
2022/07/09 10:39:36;;;;;;;2.50;1.50;;;29.30;76.00;;;;;;5059924;28;20051;-81
2022/07/09 10:42:16;;;;;;;3.35;1.60;;;30.10;73.20;;;;;;5060653;28;20029;-82
2022/07/09 10:44:43;;;;;;;6.40;1.52;;;30.50;72.20;;;;;;5061387;28;20493;-83
2022/07/09 10:47:08;;;;;;;2.92;1.50;;;30.00;71.60;;;;;;5061157;28;20033;-82
2022/07/09 10:49:37;;;;;;;4.00;1.52;;;29.10;72.50;;;;;;5061230;28;20047;-83
2022/07/09 10:52:04;;;;;;;3.58;1.73;;;28.20;72.90;;;;;;5061060;28;20100;-83
2022/07/09 10:54:30;;;;;;;4.68;1.33;;;27.70;74.00;;;;;;5060947;28;20555;-83
2022/07/09 10:56:57;;;;;;;1.48;1.15;;;28.80;72.60;;;;;;5060537;28;20077;-83
2022/07/09 10:59:24;;;;;;;2.53;1.30;;;29.70;71.90;;;;;;5061081;28;20032;-82
2022/07/09 11:01:51;;;;;;;3.35;1.52;;;29.80;71.10;;;;;;5061077;28;20016;-83
2022/07/09 11:04:31;;;;;;;4.00;1.30;;;30.40;70.40;;;;;;5059884;28;20033;-84
2022/07/09 11:06:57;;;;;;;9.07;1.27;;;30.80;69.40;;;;;;5059387;28;20044;-83
2022/07/09 11:09:28;;;;;;;1.95;1.20;;;31.50;68.10;;;;;;5068237;28;20024;-83
2022/07/09 11:11:54;;;;;;;8.18;1.60;;;32.30;67.30;;;;;;5069523;28;20051;-83
2022/07/09 11:14:20;;;;;;;4.18;1.30;;;33.80;65.40;;;;;;5068091;28;20071;-84
2022/07/09 11:17:01;;;;;;;1.60;1.00;;;35.40;62.60;;;;;;5067619;28;20025;-82
2022/07/09 11:19:30;;;;;;;2.00;1.13;;;36.70;59.40;;;;;;5059983;28;20033;-82
2022/07/09 11:22:02;;;;;;;2.22;1.20;;;37.60;57.80;;;;;;5059473;28;20028;-82
2022/07/09 11:24:29;;;;;;;5.50;1.33;;;36.60;55.40;;;;;;5060566;28;20040;-83
2022/07/09 11:26:55;;;;;;;3.20;1.17;;;34.70;56.80;;;;;;5058777;28;20025;-83
2022/07/09 11:29:21;;;;;;;4.97;1.42;;;33.50;58.30;;;;;;5059978;28;20183;-82
2022/07/09 11:31:51;;;;;;;2.50;1.33;;;33.90;57.80;;;;;;5059663;28;20469;-82
2022/07/09 11:34:18;;;;;;;3.28;1.10;;;33.50;57.60;;;;;;5060011;28;20074;-83
2022/07/09 11:36:46;;;;;;;3.17;1.70;;;33.80;57.50;;;;;;5042231;28;20388;-83
2022/07/09 11:39:30;;;;;;;1.83;1.38;;;34.70;57.00;;;;;;5061797;28;20040;-81
2022/07/09 11:42:01;;;;;;;2.10;1.08;;;35.90;56.30;;;;;;5061464;28;20039;-82
2022/07/09 11:44:34;;;;;;;3.88;1.27;;;36.00;55.40;;;;;;5060735;28;20043;-82
2022/07/09 11:47:06;;;;;;;8.25;1.40;;;35.90;55.30;;;;;;5061396;28;20113;-82
2022/07/09 11:49:34;;;;;;;4.25;1.15;;;35.20;55.60;;;;;;5067422;28;20098;-81
2022/07/09 11:52:00;;;;;;;2.42;1.38;;;35.50;55.30;;;;;;5068416;28;20025;-83
2022/07/09 11:54:30;;;;;;;2.95;1.20;;;36.40;55.10;;;;;;5064110;28;20039;-83
2022/07/09 11:56:56;;;;;;;4.15;1.40;;;36.60;54.00;;;;;;5049576;28;20028;-81
2022/07/09 11:59:31;;;;;;;1.67;1.30;;;36.20;53.70;;;;;;5062041;28;20028;-84
2022/07/09 12:02:02;;;;;;;5.25;1.45;;;35.90;52.90;;;;;;5058161;28;20032;-83
2022/07/09 12:04:32;;;;;;;2.75;1.67;;;34.20;54.10;;;;;;5057998;28;20054;-83
2022/07/09 12:06:58;;;;;;;2.58;1.40;;;33.10;55.50;;;;;;5058660;28;20025;-83
2022/07/09 12:09:31;;;;;;;2.92;1.77;;;32.60;56.40;;;;;;5062560;28;20043;-83
2022/07/09 12:11:58;;;;;;;3.17;1.85;;;32.50;57.40;;;;;;5057279;28;20480;-83
2022/07/09 12:14:24;;;;;;;2.42;1.35;;;32.90;57.10;;;;;;5056939;28;20028;-83
2022/07/09 12:16:50;;;;;;;4.43;1.55;;;33.90;56.20;;;;;;5056628;28;20339;-83
2022/07/09 12:19:15;;;;;;;6.38;1.35;;;34.60;53.10;;;;;;5060941;28;20051;-82
2022/07/09 12:21:41;;;;;;;2.75;1.60;;;34.80;52.70;;;;;;5067264;28;20033;-81
2022/07/09 12:24:07;;;;;;;3.75;1.13;;;35.70;52.60;;;;;;5065341;28;20029;-81
2022/07/09 12:26:33;;;;;;;8.10;1.45;;;36.50;52.60;;;;;;5065402;28;20036;-81
2022/07/09 12:28:59;;;;;;;4.18;1.52;;;37.80;51.40;;;;;;5065189;28;20056;-81
2022/07/09 12:31:25;;;;;;;1.65;1.00;;;38.50;50.50;;;;;;5066672;28;20025;-81
2022/07/09 12:33:50;;;;;;;2.10;1.38;;;39.00;50.10;;;;;;5067302;28;20029;-81
2022/07/09 12:36:16;;;;;;;5.43;1.58;;;38.40;50.10;;;;;;5066762;28;20081;-82
2022/07/09 12:38:43;;;;;;;2.15;1.30;;;38.40;50.70;;;;;;5058447;28;20025;-83
2022/07/09 12:41:08;;;;;;;2.17;1.20;;;38.80;49.10;;;;;;5058364;28;20043;-81
2022/07/09 12:43:34;;;;;;;2.38;1.60;;;38.80;48.70;;;;;;5059538;28;20029;-81
2022/07/09 12:46:00;;;;;;;4.55;1.67;;;38.90;48.90;;;;;;5058789;28;20025;-81
2022/07/09 12:48:26;;;;;;;2.97;1.02;;;39.20;48.50;;;;;;5057060;28;20035;-83
2022/07/09 12:50:51;;;;;;;2.72;1.30;;;39.50;48.10;;;;;;5056005;28;20495;-82
2022/07/09 12:53:17;;;;;;;7.60;1.75;;;39.90;48.10;;;;;;5057327;28;20029;-82